createdAt,value
2018-10-16T00:01:59.421Z,12.97
2018-10-16T00:04:28.244Z,13.50
2018-10-16T00:06:57.041Z,14.20
2018-10-16T00:09:25.834Z,13.40
2018-10-16T00:12:03.869Z,13.37
2018-10-16T00:14:32.909Z,14.47
2018-10-16T00:17:02.678Z,14.07
2018-10-16T00:19:31.864Z,14.10
2018-10-16T00:22:00.653Z,12.47
2018-10-16T00:24:29.478Z,13.37
2018-10-16T00:26:58.268Z,12.90
2018-10-16T00:29:27.100Z,15.37
2018-10-16T00:31:55.915Z,13.60
2018-10-16T00:34:24.680Z,13.20
2018-10-16T00:36:53.488Z,13.67
2018-10-16T00:39:22.293Z,13.70
2018-10-16T00:41:53.089Z,14.00
2018-10-16T00:44:22.009Z,14.90
2018-10-16T00:46:50.787Z,13.37
2018-10-16T00:49:19.568Z,13.93
2018-10-16T00:51:48.344Z,14.00
2018-10-16T00:54:17.149Z,12.93
2018-10-16T00:56:45.929Z,12.10
2018-10-16T00:59:14.753Z,12.90
2018-10-16T01:01:43.533Z,12.87
2018-10-16T01:04:12.329Z,13.20
2018-10-16T01:06:41.109Z,13.07
2018-10-16T01:09:12.040Z,12.70
2018-10-16T01:11:41.058Z,11.87
2018-10-16T01:14:09.876Z,12.33
2018-10-16T01:16:38.693Z,11.67
2018-10-16T01:19:07.513Z,12.80
2018-10-16T01:21:36.313Z,12.33
2018-10-16T01:24:05.381Z,12.13
2018-10-16T01:26:34.185Z,13.90
2018-10-16T01:29:02.976Z,12.97
2018-10-16T01:31:31.865Z,12.87
2018-10-16T01:34:00.650Z,12.40
2018-10-16T01:36:29.457Z,12.17
2018-10-16T01:38:58.261Z,13.10
2018-10-16T01:41:27.048Z,12.90
2018-10-16T01:43:55.826Z,12.73
2018-10-16T01:46:24.625Z,12.63
2018-10-16T01:48:53.423Z,12.73
2018-10-16T01:51:22.194Z,12.70
2018-10-16T01:53:50.989Z,12.77
2018-10-16T01:56:19.772Z,13.47
2018-10-16T01:58:48.597Z,13.93
2018-10-16T02:01:17.384Z,12.67
2018-10-16T02:03:46.179Z,11.77
2018-10-16T02:06:14.966Z,12.70
2018-10-16T02:08:43.790Z,12.47
2018-10-16T02:11:12.652Z,12.50
2018-10-16T02:13:41.492Z,12.00
2018-10-16T02:16:10.363Z,13.10
2018-10-16T02:18:39.172Z,12.13
2018-10-16T02:21:08.070Z,10.83
2018-10-16T02:23:37.239Z,12.50
2018-10-16T02:26:06.507Z,12.03
2018-10-16T02:28:38.309Z,12.23
2018-10-16T02:31:07.128Z,13.23
2018-10-16T02:33:35.951Z,12.47
2018-10-16T02:36:04.797Z,11.70
2018-10-16T02:38:33.622Z,12.20
2018-10-16T02:41:02.430Z,11.40
2018-10-16T02:43:31.285Z,12.07
2018-10-16T02:46:00.090Z,11.87
2018-10-16T02:48:28.910Z,10.80
2018-10-16T02:50:57.708Z,11.33
2018-10-16T02:53:26.501Z,10.60
2018-10-16T02:55:55.282Z,11.77
2018-10-16T02:58:24.138Z,12.57
2018-10-16T03:00:52.924Z,13.23
2018-10-16T03:03:21.719Z,13.77
2018-10-16T03:05:50.548Z,14.13
2018-10-16T03:08:19.557Z,12.53
2018-10-16T03:10:48.378Z,11.77
2018-10-16T03:13:17.212Z,12.53
2018-10-16T03:15:46.005Z,12.27
2018-10-16T03:18:14.892Z,12.60
2018-10-16T03:20:43.757Z,11.63
2018-10-16T03:23:12.561Z,12.67
2018-10-16T03:25:41.361Z,12.93
2018-10-16T03:28:10.163Z,12.23
2018-10-16T03:30:38.960Z,13.03
2018-10-16T03:33:07.773Z,13.10
2018-10-16T03:35:36.557Z,13.67
2018-10-16T03:38:05.545Z,13.53
2018-10-16T03:40:34.325Z,13.43
2018-10-16T03:43:03.117Z,13.10
2018-10-16T03:45:31.905Z,12.83
2018-10-16T03:48:00.720Z,12.00
2018-10-16T03:50:29.506Z,12.03
2018-10-16T03:52:58.312Z,12.30
2018-10-16T03:55:27.104Z,11.50
2018-10-16T03:57:55.912Z,12.23
2018-10-16T04:00:24.706Z,13.27
2018-10-16T04:02:53.493Z,12.13
2018-10-16T04:05:22.429Z,11.43
2018-10-16T04:07:51.244Z,11.80
2018-10-16T04:10:20.030Z,11.93
2018-10-16T04:12:49.854Z,11.47
2018-10-16T04:15:18.697Z,11.27
2018-10-16T04:17:47.547Z,11.07
2018-10-16T04:20:16.302Z,11.87
2018-10-16T04:22:45.163Z,12.17
2018-10-16T04:25:13.889Z,12.40
2018-10-16T04:27:42.674Z,11.90
2018-10-16T04:30:11.433Z,12.73
2018-10-16T04:32:40.213Z,11.67
2018-10-16T04:35:11.597Z,11.27
2018-10-16T04:37:40.382Z,12.67
2018-10-16T04:40:08.869Z,12.00
2018-10-16T04:42:37.661Z,11.53
2018-10-16T04:45:07.175Z,11.77
2018-10-16T04:47:35.974Z,11.30
2018-10-16T04:50:04.825Z,11.73
2018-10-16T04:52:33.582Z,11.87
2018-10-16T04:55:02.443Z,11.67
2018-10-16T04:57:31.202Z,11.23
2018-10-16T05:00:00.002Z,12.53
2018-10-16T05:02:28.794Z,13.13
2018-10-16T05:04:57.593Z,10.87
2018-10-16T05:07:26.412Z,11.23
2018-10-16T05:09:55.301Z,11.90
2018-10-16T05:12:24.090Z,11.70
2018-10-16T05:14:52.877Z,11.37
2018-10-16T05:17:21.661Z,12.50
2018-10-16T05:19:50.453Z,14.07
2018-10-16T05:22:19.234Z,15.63
2018-10-16T05:24:48.036Z,14.63
2018-10-16T05:27:16.884Z,14.57
2018-10-16T05:29:45.660Z,12.87
2018-10-16T05:32:14.464Z,12.93
2018-10-16T05:34:43.344Z,13.40
2018-10-16T05:37:12.118Z,15.47
2018-10-16T05:39:40.950Z,14.80
2018-10-16T05:42:09.768Z,15.10
2018-10-16T05:44:38.550Z,15.07
2018-10-16T05:47:07.342Z,15.23
2018-10-16T05:49:36.118Z,15.23
2018-10-16T05:52:04.908Z,14.77
2018-10-16T05:54:33.669Z,14.23
2018-10-16T05:57:02.422Z,13.30
2018-10-16T05:59:31.292Z,14.53
2018-10-16T06:02:00.065Z,13.93
2018-10-16T06:04:28.841Z,13.10
2018-10-16T06:06:57.599Z,14.50
2018-10-16T06:09:26.354Z,14.47
2018-10-16T06:11:55.103Z,14.87
2018-10-16T06:14:23.868Z,13.00
2018-10-16T06:16:52.613Z,13.40
2018-10-16T06:19:21.381Z,13.53
2018-10-16T06:21:50.146Z,15.67
2018-10-16T06:24:19.049Z,13.97
2018-10-16T06:26:47.720Z,13.57
2018-10-16T06:29:16.501Z,13.70
2018-10-16T06:31:45.279Z,14.17
2018-10-16T06:34:14.032Z,15.37
2018-10-16T06:36:42.802Z,15.50
2018-10-16T06:39:11.850Z,13.93
2018-10-16T06:41:40.740Z,14.43
2018-10-16T06:44:09.517Z,15.33
2018-10-16T06:46:38.386Z,13.90
2018-10-16T06:49:07.119Z,13.97
2018-10-16T06:51:35.890Z,14.20
2018-10-16T06:54:04.632Z,14.80
2018-10-16T06:56:33.466Z,14.80
2018-10-16T06:59:02.201Z,12.97
2018-10-16T07:01:30.977Z,13.73
2018-10-16T07:03:59.717Z,14.47
2018-10-16T07:06:28.591Z,16.20
2018-10-16T07:08:57.297Z,18.10
2018-10-16T07:11:26.066Z,15.90
2018-10-16T07:13:54.885Z,14.70
2018-10-16T07:16:23.696Z,14.40
2018-10-16T07:18:52.449Z,15.90
2018-10-16T07:21:21.279Z,16.30
2018-10-16T07:23:50.022Z,14.77
2018-10-16T07:26:18.765Z,14.10
2018-10-16T07:28:47.521Z,15.07
2018-10-16T07:31:16.321Z,13.77
2018-10-16T07:33:45.089Z,14.67
2018-10-16T07:36:13.922Z,15.10
2018-10-16T07:38:42.651Z,13.87
2018-10-16T07:41:11.430Z,14.80
2018-10-16T07:43:40.221Z,15.33
2018-10-16T07:46:09.013Z,14.83
2018-10-16T07:48:37.906Z,15.80
2018-10-16T07:51:06.609Z,14.97
2018-10-16T07:53:35.473Z,15.87
2018-10-16T07:56:04.254Z,17.30
2018-10-16T07:58:33.021Z,15.83
2018-10-16T08:01:01.815Z,16.62
2018-10-16T08:03:30.628Z,14.45
2018-10-16T08:05:59.371Z,13.50
2018-10-16T08:08:28.137Z,13.37
2018-10-16T08:10:56.901Z,13.30
2018-10-16T08:13:25.742Z,14.43
2018-10-16T08:15:54.537Z,13.35
2018-10-16T08:18:23.321Z,14.60
2018-10-16T08:20:52.084Z,13.30
2018-10-16T08:23:20.938Z,14.23
2018-10-16T08:25:49.681Z,12.90
2018-10-16T08:28:18.454Z,13.90
2018-10-16T08:30:47.229Z,16.93
2018-10-16T08:33:16.092Z,14.35
2018-10-16T08:35:44.875Z,17.10
2018-10-16T08:38:21.228Z,17.17
2018-10-16T08:40:49.989Z,18.42
2018-10-16T08:43:36.686Z,18.00
2018-10-16T08:48:21.549Z,15.30
2018-10-16T08:51:01.577Z,15.43
2018-10-16T08:53:30.397Z,15.98
2018-10-16T08:56:02.465Z,17.82
2018-10-16T08:58:31.245Z,17.40
2018-10-16T09:01:00.010Z,16.12
2018-10-16T09:03:28.809Z,16.50
2018-10-16T09:05:57.626Z,15.38
2018-10-16T09:08:26.390Z,14.60
2018-10-16T09:10:55.193Z,15.05
2018-10-16T09:13:23.972Z,13.80
2018-10-16T09:15:52.750Z,14.45
2018-10-16T09:18:21.571Z,13.72
2018-10-16T09:20:50.333Z,12.30
2018-10-16T09:23:19.153Z,13.75
2018-10-16T09:25:47.950Z,15.55
2018-10-16T09:28:16.813Z,12.98
2018-10-16T09:30:45.702Z,13.43
2018-10-16T09:33:14.386Z,14.13
2018-10-16T09:35:43.201Z,12.23
2018-10-16T09:38:12.087Z,11.40
2018-10-16T09:40:40.742Z,13.10
2018-10-16T09:43:09.509Z,14.35
2018-10-16T09:45:38.341Z,14.13
2018-10-16T09:48:07.109Z,12.70
2018-10-16T09:50:35.929Z,13.83
2018-10-16T09:53:04.885Z,13.90
2018-10-16T09:55:33.658Z,12.80
2018-10-16T09:58:02.397Z,13.88
2018-10-16T10:00:36.696Z,12.90
2018-10-16T10:03:05.709Z,12.95
2018-10-16T10:05:39.936Z,13.38
2018-10-16T10:08:14.244Z,14.10
2018-10-16T10:10:48.547Z,13.13
2018-10-16T10:13:22.757Z,12.93
2018-10-16T10:15:57.236Z,13.03
2018-10-16T10:18:31.612Z,14.63
2018-10-16T10:21:06.116Z,12.30
2018-10-16T10:23:40.553Z,11.10
2018-10-16T10:26:14.997Z,12.43
2018-10-16T10:28:49.397Z,12.80
2018-10-16T10:31:23.770Z,13.10
2018-10-16T10:33:58.626Z,12.75
2018-10-16T10:36:33.173Z,13.43
2018-10-16T10:39:10.134Z,12.30
2018-10-16T10:41:38.945Z,12.95
2018-10-16T10:44:08.312Z,12.47
2018-10-16T10:46:37.215Z,13.38
2018-10-16T10:49:06.043Z,13.18
2018-10-16T10:51:35.170Z,13.05
2018-10-16T10:54:03.632Z,13.68
2018-10-16T10:56:32.586Z,12.43
2018-10-16T10:59:01.641Z,13.25
2018-10-16T11:01:30.470Z,12.55
2018-10-16T11:03:59.272Z,13.35
2018-10-16T11:06:28.045Z,12.30
2018-10-16T11:08:57.011Z,12.68
2018-10-16T11:11:25.850Z,12.25
2018-10-16T11:13:54.666Z,11.97
2018-10-16T11:16:23.510Z,12.78
2018-10-16T11:18:52.272Z,11.85
2018-10-16T11:21:21.043Z,10.82
2018-10-16T11:23:49.900Z,11.53
2018-10-16T11:26:18.761Z,10.63
2018-10-16T11:28:47.804Z,12.58
2018-10-16T11:31:16.669Z,12.28
2018-10-16T11:33:45.569Z,12.07
2018-10-16T11:36:14.421Z,12.40
2018-10-16T11:38:43.225Z,11.97
2018-10-16T11:41:12.021Z,11.30
2018-10-16T11:43:40.790Z,10.50
2018-10-16T11:46:09.586Z,11.88
2018-10-16T11:48:38.356Z,12.05
2018-10-16T11:51:07.145Z,12.63
2018-10-16T11:53:35.945Z,11.18
2018-10-16T11:56:04.758Z,11.10
2018-10-16T11:58:33.461Z,10.98
2018-10-16T12:01:02.380Z,11.85
2018-10-16T12:03:31.151Z,11.97
2018-10-16T12:06:00.157Z,11.93
2018-10-16T12:08:28.887Z,11.95
2018-10-16T12:10:57.754Z,10.25
2018-10-16T12:13:26.528Z,9.85
2018-10-16T12:15:55.290Z,10.00
2018-10-16T12:18:33.177Z,9.90
2018-10-16T12:21:07.791Z,11.68
2018-10-16T12:23:36.595Z,11.45
2018-10-16T12:26:05.610Z,11.03
2018-10-16T12:28:34.398Z,11.40
2018-10-16T12:31:03.248Z,10.80
2018-10-16T12:33:32.034Z,13.65
2018-10-16T12:36:00.836Z,11.75
2018-10-16T12:38:29.733Z,11.70
2018-10-16T12:40:59.025Z,12.75
2018-10-16T12:43:28.233Z,11.60
2018-10-16T12:45:57.438Z,11.78
2018-10-16T12:48:26.257Z,11.90
2018-10-16T12:50:55.062Z,11.25
2018-10-16T12:53:23.955Z,10.00
2018-10-16T12:55:52.754Z,11.68
2018-10-16T12:58:21.670Z,10.58
2018-10-16T13:00:50.589Z,10.32
2018-10-16T13:03:19.369Z,11.03
2018-10-16T13:05:48.229Z,10.93
2018-10-16T13:08:17.027Z,11.73
2018-10-16T13:10:45.904Z,10.28
2018-10-16T13:13:14.703Z,10.20
2018-10-16T13:15:43.496Z,11.53
2018-10-16T13:18:12.425Z,11.03
2018-10-16T13:20:41.285Z,10.43
2018-10-16T13:23:10.242Z,11.65
2018-10-16T13:25:38.980Z,10.38
2018-10-16T13:28:07.866Z,11.20
2018-10-16T13:30:36.601Z,9.80
2018-10-16T13:33:05.472Z,10.53
2018-10-16T13:35:34.245Z,9.45
2018-10-16T13:38:03.050Z,10.53
2018-10-16T13:40:31.797Z,10.90
2018-10-16T13:43:00.600Z,11.28
2018-10-16T13:45:29.353Z,9.53
2018-10-16T13:47:58.144Z,12.30
2018-10-16T13:50:26.913Z,11.35
2018-10-16T13:52:55.676Z,10.05
2018-10-16T13:55:24.490Z,9.53
2018-10-16T13:57:53.290Z,11.70
2018-10-16T14:00:22.026Z,10.48
2018-10-16T14:02:51.984Z,11.75
2018-10-16T14:05:20.785Z,12.10
2018-10-16T14:07:49.573Z,10.03
2018-10-16T14:10:18.661Z,10.55
2018-10-16T14:12:48.144Z,10.53
2018-10-16T14:15:17.475Z,9.98
2018-10-16T14:17:46.258Z,10.93
2018-10-16T14:20:15.058Z,10.50
2018-10-16T14:22:44.138Z,10.72
2018-10-16T14:25:14.251Z,11.10
2018-10-16T14:27:43.241Z,10.72
2018-10-16T14:30:14.197Z,10.35
2018-10-16T14:32:43.385Z,12.25
2018-10-16T14:35:12.693Z,13.28
2018-10-16T14:37:41.677Z,11.93
2018-10-16T14:40:12.543Z,12.10
2018-10-16T14:42:41.504Z,12.63
2018-10-16T14:45:11.229Z,12.28
2018-10-16T14:47:39.995Z,13.58
2018-10-16T14:50:09.600Z,12.75
2018-10-16T14:52:38.271Z,11.38
2018-10-16T14:55:07.033Z,11.90
2018-10-16T14:57:35.904Z,11.57
2018-10-16T15:00:06.290Z,12.05
2018-10-16T15:02:35.070Z,12.28
2018-10-16T15:05:04.270Z,12.23
2018-10-16T15:07:33.035Z,13.90
2018-10-16T15:10:01.918Z,12.73
2018-10-16T15:12:30.965Z,14.87
2018-10-16T15:15:00.283Z,13.28
2018-10-16T15:17:29.658Z,11.12
2018-10-16T15:19:58.698Z,11.88
2018-10-16T15:22:27.768Z,11.93
2018-10-16T15:24:56.549Z,10.30
2018-10-16T15:27:25.417Z,12.35
2018-10-16T15:29:54.325Z,11.30
2018-10-16T15:32:23.156Z,10.10
2018-10-16T15:34:52.001Z,12.23
2018-10-16T15:37:21.115Z,10.58
2018-10-16T15:39:49.958Z,9.10
2018-10-16T15:42:18.846Z,10.60
2018-10-16T15:44:47.629Z,10.70
2018-10-16T15:47:16.436Z,11.22
2018-10-16T15:49:45.257Z,11.90
2018-10-16T15:52:14.176Z,10.32
2018-10-16T15:54:42.849Z,11.22
2018-10-16T15:57:11.666Z,10.25
2018-10-16T15:59:40.437Z,11.12
2018-10-16T16:02:09.287Z,10.40
2018-10-16T16:04:38.045Z,11.40
2018-10-16T16:07:06.809Z,11.28
2018-10-16T16:09:35.597Z,11.48
2018-10-16T16:12:04.548Z,10.40
2018-10-16T16:14:33.253Z,10.30
2018-10-16T16:17:02.136Z,9.95
2018-10-16T16:19:30.898Z,9.00
2018-10-16T16:21:59.680Z,7.53
2018-10-16T16:24:28.505Z,8.08
2018-10-16T16:26:57.278Z,8.28
2018-10-16T16:29:26.038Z,7.42
2018-10-16T16:31:54.931Z,7.40
2018-10-16T16:34:23.648Z,7.25
2018-10-16T16:36:52.494Z,7.92
2018-10-16T16:39:21.175Z,7.45
2018-10-16T16:41:50.053Z,7.67
2018-10-16T16:44:18.806Z,8.30
2018-10-16T16:46:47.583Z,7.65
2018-10-16T16:49:16.365Z,7.45
2018-10-16T16:51:45.112Z,7.12
2018-10-16T16:54:13.886Z,8.30
2018-10-16T16:56:42.633Z,8.53
2018-10-16T16:59:11.541Z,8.98
2018-10-16T17:01:40.177Z,7.55
2018-10-16T17:04:08.988Z,8.10
2018-10-16T17:06:37.690Z,7.85
2018-10-16T17:09:09.661Z,8.25
2018-10-16T17:11:38.491Z,9.30
2018-10-16T17:14:07.602Z,8.58
2018-10-16T17:16:36.438Z,8.25
2018-10-16T17:19:05.825Z,8.73
2018-10-16T17:21:34.614Z,8.38
2018-10-16T17:24:03.529Z,7.95
2018-10-16T17:26:32.389Z,8.58
2018-10-16T17:29:01.339Z,8.00
2018-10-16T17:31:30.166Z,7.83
2018-10-16T17:33:59.036Z,8.53
2018-10-16T17:36:28.825Z,8.50
2018-10-16T17:38:57.628Z,9.08
2018-10-16T17:41:26.415Z,9.83
2018-10-16T17:43:55.240Z,8.95
2018-10-16T17:46:24.206Z,9.20
2018-10-16T17:48:54.099Z,9.80
2018-10-16T17:51:22.889Z,8.78
2018-10-16T17:53:51.782Z,8.95
2018-10-16T17:56:20.703Z,8.73
2018-10-16T17:58:49.481Z,8.98
2018-10-16T18:01:18.253Z,9.20
2018-10-16T18:03:47.004Z,8.28
2018-10-16T18:06:15.818Z,8.03
2018-10-16T18:08:44.588Z,8.13
2018-10-16T18:11:13.409Z,8.25
2018-10-16T18:13:42.170Z,7.10
2018-10-16T18:16:10.951Z,7.83
2018-10-16T18:18:39.706Z,8.48
2018-10-16T18:21:08.555Z,7.95
2018-10-16T18:23:37.384Z,7.85
2018-10-16T18:26:06.138Z,9.03
2018-10-16T18:28:34.893Z,8.30
2018-10-16T18:31:03.656Z,7.62
2018-10-16T18:33:32.893Z,8.38
2018-10-16T18:36:01.696Z,8.83
2018-10-16T18:38:30.694Z,8.28
2018-10-16T18:40:59.551Z,8.70
2018-10-16T18:43:28.916Z,9.30
2018-10-16T18:45:57.819Z,9.48
2018-10-16T18:48:26.614Z,9.38
2018-10-16T18:50:55.432Z,9.98
2018-10-16T18:53:24.301Z,9.33
2018-10-16T18:55:53.062Z,10.25
2018-10-16T18:58:21.884Z,10.95
2018-10-16T19:00:50.660Z,12.95
2018-10-16T19:03:19.445Z,10.98
2018-10-16T19:05:48.227Z,11.43
2018-10-16T19:08:16.989Z,10.55
2018-10-16T19:10:45.885Z,10.32
2018-10-16T19:13:14.668Z,9.65
2018-10-16T19:15:43.485Z,10.75
2018-10-16T19:18:12.273Z,11.30
2018-10-16T19:20:41.064Z,11.63
2018-10-16T19:23:09.838Z,11.40
2018-10-16T19:25:38.672Z,11.85
2018-10-16T19:28:07.673Z,12.00
2018-10-16T19:30:36.442Z,10.55
2018-10-16T19:33:05.440Z,12.07
2018-10-16T19:35:34.205Z,13.18
2018-10-16T19:38:02.971Z,12.30
2018-10-16T19:40:31.829Z,12.50
2018-10-16T19:43:00.637Z,12.80
2018-10-16T19:45:29.462Z,12.82
2018-10-16T19:47:58.193Z,13.32
2018-10-16T19:50:26.981Z,12.25
2018-10-16T19:52:55.746Z,13.58
2018-10-16T19:55:25.341Z,14.20
2018-10-16T19:57:54.221Z,12.45
2018-10-16T20:00:23.023Z,12.65
2018-10-16T20:02:51.803Z,13.27
2018-10-16T20:05:20.583Z,13.80
2018-10-16T20:07:49.362Z,12.33
2018-10-16T20:10:18.265Z,12.73
2018-10-16T20:12:47.051Z,12.07
2018-10-16T20:15:15.841Z,11.45
2018-10-16T20:17:44.637Z,11.95
2018-10-16T20:20:13.823Z,11.80
2018-10-16T20:22:43.638Z,12.65
2018-10-16T20:25:12.570Z,13.18
2018-10-16T20:27:41.370Z,12.60
2018-10-16T20:30:11.482Z,13.25
2018-10-16T20:32:40.575Z,12.45
2018-10-16T20:35:09.398Z,12.75
2018-10-16T20:37:38.230Z,12.63
2018-10-16T20:40:07.337Z,12.00
2018-10-16T20:42:37.186Z,13.13
2018-10-16T20:45:06.326Z,12.82
2018-10-16T20:47:35.257Z,14.15
2018-10-16T20:50:04.077Z,14.03
2018-10-16T20:52:32.863Z,14.53
2018-10-16T20:55:01.770Z,14.90
2018-10-16T20:57:30.590Z,15.73
2018-10-16T20:59:59.673Z,15.90
2018-10-16T21:02:28.537Z,13.37
2018-10-16T21:04:57.476Z,14.23
2018-10-16T21:07:26.207Z,13.90
2018-10-16T21:09:55.031Z,14.60
2018-10-16T21:12:23.856Z,15.63
2018-10-16T21:14:52.622Z,16.73
2018-10-16T21:17:21.393Z,16.45
2018-10-16T21:19:50.139Z,17.65
2018-10-16T21:22:20.929Z,15.90
2018-10-16T21:24:49.701Z,15.08
2018-10-16T21:27:18.513Z,15.73
2018-10-16T21:29:47.452Z,15.28
2018-10-16T21:32:16.214Z,16.00
2018-10-16T21:34:45.016Z,15.17
2018-10-16T21:37:14.006Z,14.97
2018-10-16T21:39:42.697Z,19.47
2018-10-16T21:42:11.448Z,17.73
2018-10-16T21:44:40.224Z,16.50
2018-10-16T21:47:09.004Z,16.63
2018-10-16T21:49:37.809Z,15.67
2018-10-16T21:52:06.562Z,15.90
2018-10-16T21:54:35.307Z,15.07
2018-10-16T21:57:04.184Z,14.93
2018-10-16T21:59:32.978Z,16.93
2018-10-16T22:02:06.937Z,16.70
2018-10-16T22:04:35.676Z,15.65
2018-10-16T22:07:04.585Z,15.97
2018-10-16T22:09:33.252Z,15.05
2018-10-16T22:12:02.050Z,18.97
2018-10-16T22:14:30.799Z,17.60
2018-10-16T22:16:59.588Z,17.60
2018-10-16T22:19:28.409Z,19.73
2018-10-16T22:21:57.167Z,19.07
2018-10-16T22:24:25.947Z,18.63
2018-10-16T22:26:54.692Z,18.97
2018-10-16T22:29:23.489Z,17.77
2018-10-16T22:31:52.224Z,19.17
2018-10-16T22:34:21.133Z,17.85
2018-10-16T22:36:49.930Z,18.80
2018-10-16T22:39:18.724Z,19.20
2018-10-16T22:41:47.500Z,17.20
2018-10-16T22:44:16.237Z,16.83
2018-10-16T22:46:44.990Z,17.60
2018-10-16T22:49:13.820Z,18.60
2018-10-16T22:51:42.512Z,18.93
2018-10-16T22:54:11.257Z,18.37
2018-10-16T22:56:40.206Z,17.17
2018-10-16T22:59:09.015Z,16.60
2018-10-16T23:01:37.706Z,18.00
2018-10-16T23:04:06.462Z,18.37
2018-10-16T23:06:35.227Z,18.70
2018-10-16T23:09:05.010Z,18.73
2018-10-16T23:11:33.817Z,18.17
2018-10-16T23:14:02.536Z,18.20
2018-10-16T23:16:31.310Z,20.33
2018-10-16T23:19:00.109Z,22.83
2018-10-16T23:21:28.820Z,20.83
2018-10-16T23:23:57.580Z,20.93
2018-10-16T23:26:26.325Z,22.30
2018-10-16T23:28:55.120Z,23.27
2018-10-16T23:31:23.924Z,22.67
2018-10-16T23:33:52.688Z,21.23
2018-10-16T23:36:21.434Z,21.47
2018-10-16T23:38:50.181Z,24.03
2018-10-16T23:41:18.956Z,21.63
2018-10-16T23:43:47.730Z,21.53
2018-10-16T23:46:16.472Z,20.33
2018-10-16T23:48:45.220Z,22.73
2018-10-16T23:51:13.964Z,21.73
2018-10-16T23:53:42.716Z,22.43
2018-10-16T23:56:11.466Z,20.87
2018-10-16T23:58:40.221Z,21.33
